createdAt,value
2018-05-17T00:00:33.373Z,37.50
2018-05-17T00:03:01.349Z,29.40
2018-05-17T00:05:29.084Z,30.02
2018-05-17T00:07:57.239Z,28.17
2018-05-17T00:10:25.399Z,29.17
2018-05-17T00:12:57.493Z,27.37
2018-05-17T00:15:27.390Z,25.80
2018-05-17T00:17:58.529Z,23.27
2018-05-17T00:20:29.175Z,24.90
2018-05-17T00:22:56.900Z,25.07
2018-05-17T00:25:24.613Z,23.50
2018-05-17T00:27:52.389Z,23.80
2018-05-17T00:30:20.130Z,24.30
2018-05-17T00:32:49.741Z,24.30
2018-05-17T00:35:18.850Z,23.30
2018-05-17T00:37:46.713Z,24.77
2018-05-17T00:40:14.586Z,22.87
2018-05-17T00:42:43.318Z,20.90
2018-05-17T00:45:11.374Z,22.10
2018-05-17T00:47:39.091Z,21.90
2018-05-17T00:50:07.265Z,21.80
2018-05-17T00:52:35.883Z,21.87
2018-05-17T00:55:03.426Z,19.33
2018-05-17T00:57:31.228Z,20.70
2018-05-17T00:59:59.035Z,19.47
2018-05-17T01:02:27.421Z,19.97
2018-05-17T01:04:55.506Z,19.20
2018-05-17T01:07:23.458Z,17.63
2018-05-17T01:09:51.453Z,19.17
2018-05-17T01:12:19.475Z,17.87
2018-05-17T01:14:47.262Z,16.13
2018-05-17T01:17:15.895Z,17.03
2018-05-17T01:19:45.159Z,15.90
2018-05-17T01:22:13.309Z,16.47
2018-05-17T01:24:41.265Z,15.90
2018-05-17T01:27:09.826Z,14.20
2018-05-17T01:29:37.594Z,13.57
2018-05-17T01:32:05.787Z,14.90
2018-05-17T01:34:33.443Z,14.67
2018-05-17T01:37:02.693Z,14.13
2018-05-17T01:39:30.356Z,11.90
2018-05-17T01:41:58.968Z,12.50
2018-05-17T01:44:26.680Z,13.43
2018-05-17T01:46:54.712Z,12.70
2018-05-17T01:49:22.462Z,12.40
2018-05-17T01:51:50.387Z,12.90
2018-05-17T01:54:18.156Z,12.37
2018-05-17T01:56:46.076Z,13.67
2018-05-17T01:59:14.502Z,11.70
2018-05-17T02:01:42.439Z,12.50
2018-05-17T02:04:10.343Z,12.43
2018-05-17T02:06:39.539Z,11.97
2018-05-17T02:09:08.582Z,11.90
2018-05-17T02:11:36.703Z,11.47
2018-05-17T02:14:05.260Z,13.07
2018-05-17T02:16:32.991Z,12.03
2018-05-17T02:19:00.869Z,11.40
2018-05-17T02:21:29.990Z,11.40
2018-05-17T02:23:58.006Z,11.70
2018-05-17T02:26:25.728Z,11.27
2018-05-17T02:28:54.031Z,12.10
2018-05-17T02:31:22.075Z,11.20
2018-05-17T02:33:49.885Z,11.60
2018-05-17T02:36:17.801Z,11.30
2018-05-17T02:38:45.832Z,11.50
2018-05-17T02:41:14.411Z,10.40
2018-05-17T02:43:42.126Z,10.20
2018-05-17T02:46:10.198Z,10.90
2018-05-17T02:48:37.969Z,10.23
2018-05-17T02:51:06.757Z,9.90
2018-05-17T02:53:34.679Z,9.60
2018-05-17T02:56:02.786Z,10.10
2018-05-17T02:58:31.040Z,9.27
2018-05-17T03:00:59.538Z,9.47
2018-05-17T03:03:28.140Z,9.77
2018-05-17T03:05:56.118Z,9.23
2018-05-17T03:08:23.811Z,9.20
2018-05-17T03:10:52.657Z,8.37
2018-05-17T03:13:20.603Z,9.63
2018-05-17T03:15:48.343Z,8.83
2018-05-17T03:18:16.208Z,9.97
2018-05-17T03:20:44.311Z,8.97
2018-05-17T03:23:12.337Z,8.83
2018-05-17T03:25:40.298Z,9.57
2018-05-17T03:28:08.105Z,9.30
2018-05-17T03:30:35.908Z,8.63
2018-05-17T03:33:03.672Z,8.67
2018-05-17T03:35:33.193Z,9.33
2018-05-17T03:38:01.070Z,9.83
2018-05-17T03:40:28.744Z,9.73
2018-05-17T03:42:57.260Z,8.90
2018-05-17T03:45:25.034Z,9.90
2018-05-17T03:47:52.900Z,9.70
2018-05-17T03:50:21.511Z,11.30
2018-05-17T03:52:49.370Z,9.90
2018-05-17T03:55:17.370Z,10.23
2018-05-17T03:57:46.632Z,10.57
2018-05-17T04:00:15.544Z,10.90
2018-05-17T04:02:44.639Z,9.67
2018-05-17T04:05:12.475Z,9.40
2018-05-17T04:07:40.538Z,9.00
2018-05-17T04:10:08.340Z,10.53
2018-05-17T04:12:36.181Z,9.87
2018-05-17T04:15:03.958Z,9.40
2018-05-17T04:17:31.673Z,10.07
2018-05-17T04:19:59.513Z,9.13
2018-05-17T04:22:27.292Z,9.60
2018-05-17T04:24:55.638Z,9.00
2018-05-17T04:27:23.277Z,9.93
2018-05-17T04:29:51.041Z,9.87
2018-05-17T04:32:18.728Z,10.03
2018-05-17T04:34:47.209Z,8.30
2018-05-17T04:37:15.690Z,9.10
2018-05-17T04:39:43.400Z,10.23
2018-05-17T04:42:11.367Z,8.93
2018-05-17T04:44:39.419Z,8.57
2018-05-17T04:47:07.344Z,9.53
2018-05-17T04:49:35.121Z,10.17
2018-05-17T04:52:02.950Z,9.50
2018-05-17T04:54:30.693Z,8.77
2018-05-17T04:56:58.482Z,9.13
2018-05-17T04:59:26.084Z,9.30
2018-05-17T05:01:53.838Z,8.40
2018-05-17T05:04:23.387Z,7.40
2018-05-17T05:06:51.031Z,8.43
2018-05-17T05:09:19.147Z,8.63
2018-05-17T05:11:47.023Z,8.80
2018-05-17T05:14:16.220Z,8.73
2018-05-17T05:16:43.954Z,8.63
2018-05-17T05:19:12.974Z,8.80
2018-05-17T05:21:40.698Z,8.10
2018-05-17T05:24:09.373Z,7.80
2018-05-17T05:26:37.185Z,9.77
2018-05-17T05:29:05.685Z,9.00
2018-05-17T05:31:34.613Z,8.97
2018-05-17T05:34:03.421Z,9.40
2018-05-17T05:36:32.168Z,8.80
2018-05-17T05:38:59.979Z,8.27
2018-05-17T05:41:28.732Z,8.63
2018-05-17T05:43:56.629Z,7.90
2018-05-17T05:46:24.518Z,9.40
2018-05-17T05:48:52.933Z,8.00
2018-05-17T05:51:20.663Z,9.10
2018-05-17T05:53:48.451Z,9.17
2018-05-17T05:56:16.225Z,8.20
2018-05-17T05:58:44.139Z,8.20
2018-05-17T06:01:11.947Z,8.57
2018-05-17T06:03:39.621Z,7.37
2018-05-17T06:06:08.186Z,8.23
2018-05-17T06:08:36.062Z,8.70
2018-05-17T06:11:03.616Z,8.80
2018-05-17T06:13:31.105Z,8.30
2018-05-17T06:15:58.629Z,7.77
2018-05-17T06:18:26.269Z,9.50
2018-05-17T06:20:53.960Z,8.47
2018-05-17T06:23:21.632Z,8.93
2018-05-17T06:25:49.442Z,9.20
2018-05-17T06:28:17.449Z,8.83
2018-05-17T06:30:45.407Z,8.20
2018-05-17T06:33:13.259Z,9.17
2018-05-17T06:35:41.717Z,9.60
2018-05-17T06:38:10.047Z,8.47
2018-05-17T06:40:38.522Z,7.80
2018-05-17T06:43:06.413Z,8.20
2018-05-17T06:45:34.097Z,7.77
2018-05-17T06:48:01.846Z,8.03
2018-05-17T06:50:30.032Z,8.03
2018-05-17T06:52:57.847Z,9.00
2018-05-17T06:55:25.602Z,8.27
2018-05-17T06:57:53.363Z,8.03
2018-05-17T07:00:21.538Z,8.43
2018-05-17T07:02:49.517Z,9.30
2018-05-17T07:05:17.500Z,8.20
2018-05-17T07:07:46.475Z,8.87
2018-05-17T07:10:14.122Z,8.80
2018-05-17T07:12:41.966Z,9.33
2018-05-17T07:15:09.620Z,8.47
2018-05-17T07:17:37.740Z,9.33
2018-05-17T07:20:06.565Z,8.30
2018-05-17T07:22:35.170Z,8.73
2018-05-17T07:25:04.128Z,9.20
2018-05-17T07:27:31.940Z,9.13
2018-05-17T07:29:59.763Z,8.23
2018-05-17T07:32:28.270Z,8.00
2018-05-17T07:34:56.834Z,7.77
2018-05-17T07:37:25.532Z,8.50
2018-05-17T07:39:53.067Z,9.20
2018-05-17T07:42:21.005Z,9.63
2018-05-17T07:44:48.842Z,8.53
2018-05-17T07:47:16.463Z,8.57
2018-05-17T07:49:44.510Z,8.00
2018-05-17T07:52:12.219Z,8.10
2018-05-17T07:54:40.078Z,8.40
2018-05-17T07:57:08.195Z,9.13
2018-05-17T07:59:35.926Z,8.40
2018-05-17T08:02:03.946Z,8.70
2018-05-17T08:04:31.869Z,9.37
2018-05-17T08:06:59.588Z,8.97
2018-05-17T08:09:27.303Z,8.60
2018-05-17T08:11:55.040Z,8.60
2018-05-17T08:14:22.977Z,8.27
2018-05-17T08:16:50.746Z,9.17
2018-05-17T08:19:18.802Z,8.40
2018-05-17T08:21:46.349Z,8.97
2018-05-17T08:24:14.257Z,8.10
2018-05-17T08:26:42.186Z,8.43
2018-05-17T08:29:10.501Z,7.67
2018-05-17T08:31:38.211Z,7.93
2018-05-17T08:34:06.069Z,8.47
2018-05-17T08:36:34.121Z,8.47
2018-05-17T08:39:02.078Z,8.57
2018-05-17T08:41:29.815Z,8.73
2018-05-17T08:43:57.429Z,9.97
2018-05-17T08:46:25.117Z,8.40
2018-05-17T08:48:52.891Z,7.73
2018-05-17T08:51:20.991Z,9.10
2018-05-17T08:53:49.887Z,9.20
2018-05-17T08:56:17.787Z,7.90
2018-05-17T08:58:45.868Z,8.20
2018-05-17T09:01:13.621Z,8.47
2018-05-17T09:03:41.968Z,8.20
2018-05-17T09:06:10.082Z,8.93
2018-05-17T09:08:37.792Z,8.47
2018-05-17T09:11:05.473Z,8.20
2018-05-17T09:13:33.465Z,8.30
2018-05-17T09:16:01.363Z,8.00
2018-05-17T09:18:29.121Z,7.80
2018-05-17T09:20:56.764Z,7.80
2018-05-17T09:23:24.730Z,8.03
2018-05-17T09:25:53.185Z,7.80
2018-05-17T09:28:21.696Z,7.43
2018-05-17T09:30:49.581Z,8.77
2018-05-17T09:33:17.608Z,8.53
2018-05-17T09:35:46.222Z,8.83
2018-05-17T09:38:14.944Z,7.83
2018-05-17T09:40:42.608Z,8.40
2018-05-17T09:43:10.343Z,7.20
2018-05-17T09:45:38.253Z,7.47
2018-05-17T09:48:06.229Z,8.37
2018-05-17T09:50:34.302Z,7.50
2018-05-17T09:53:02.258Z,8.30
2018-05-17T09:55:29.981Z,8.20
2018-05-17T09:57:57.792Z,8.47
2018-05-17T10:00:25.473Z,8.10
2018-05-17T10:02:54.080Z,8.13
2018-05-17T10:05:22.536Z,8.50
2018-05-17T10:07:50.383Z,8.43
2018-05-17T10:10:18.144Z,7.83
2018-05-17T10:12:47.272Z,8.53
2018-05-17T10:15:15.096Z,7.40
2018-05-17T10:17:42.785Z,8.17
2018-05-17T10:20:10.551Z,7.87
2018-05-17T10:22:38.356Z,7.70
2018-05-17T10:25:06.826Z,9.00
2018-05-17T10:27:34.885Z,7.30
2018-05-17T10:30:02.873Z,8.80
2018-05-17T10:32:31.478Z,8.33
2018-05-17T10:34:59.104Z,7.77
2018-05-17T10:37:27.009Z,8.47
2018-05-17T10:39:56.207Z,7.33
2018-05-17T10:42:24.777Z,7.50
2018-05-17T10:44:52.634Z,8.00
2018-05-17T10:47:22.002Z,7.77
2018-05-17T10:49:49.669Z,7.93
2018-05-17T10:52:17.266Z,7.60
2018-05-17T10:54:45.743Z,8.00
2018-05-17T10:57:13.482Z,8.67
2018-05-17T10:59:41.950Z,8.40
2018-05-17T11:02:09.585Z,11.47
2018-05-17T11:04:37.439Z,11.47
2018-05-17T11:07:05.130Z,10.30
2018-05-17T11:09:32.949Z,9.03
2018-05-17T11:12:00.517Z,8.67
2018-05-17T11:14:28.167Z,9.03
2018-05-17T11:16:55.969Z,9.17
2018-05-17T11:19:24.002Z,10.77
2018-05-17T11:21:52.003Z,12.40
2018-05-17T11:24:19.877Z,11.20
2018-05-17T11:26:47.633Z,12.53
2018-05-17T11:29:15.541Z,12.07
2018-05-17T11:31:43.067Z,11.57
2018-05-17T11:34:11.289Z,10.57
2018-05-17T11:36:38.962Z,10.63
2018-05-17T11:39:06.743Z,9.93
2018-05-17T11:41:36.374Z,9.40
2018-05-17T11:44:04.131Z,9.17
2018-05-17T11:46:32.499Z,9.13
2018-05-17T11:49:00.381Z,8.37
2018-05-17T11:51:28.244Z,8.13
2018-05-17T11:53:56.249Z,8.70
2018-05-17T11:56:24.497Z,7.93
2018-05-17T11:58:52.193Z,8.40
2018-05-17T12:01:20.714Z,8.40
2018-05-17T12:03:48.845Z,8.67
2018-05-17T12:06:16.757Z,8.90
2018-05-17T12:08:44.855Z,8.47
2018-05-17T12:11:14.349Z,8.97
2018-05-17T12:13:42.746Z,8.50
2018-05-17T12:16:10.662Z,8.20
2018-05-17T12:18:38.497Z,8.97
2018-05-17T12:21:06.361Z,9.27
2018-05-17T12:23:34.016Z,9.17
2018-05-17T12:26:01.603Z,8.40
2018-05-17T12:28:29.288Z,8.50
2018-05-17T12:30:57.714Z,8.97
2018-05-17T12:33:25.729Z,8.57
2018-05-17T12:35:54.082Z,8.60
2018-05-17T12:38:22.746Z,8.03
2018-05-17T12:40:51.446Z,7.90
2018-05-17T12:43:19.370Z,9.00
2018-05-17T12:45:47.392Z,8.43
2018-05-17T12:48:15.648Z,8.57
2018-05-17T12:50:43.660Z,8.60
2018-05-17T12:53:11.358Z,7.93
2018-05-17T12:55:40.016Z,8.57
2018-05-17T12:58:07.800Z,8.87
2018-05-17T13:00:35.525Z,8.40
2018-05-17T13:03:03.321Z,8.73
2018-05-17T13:05:31.033Z,7.60
2018-05-17T13:07:59.503Z,8.60
2018-05-17T13:10:27.325Z,8.30
2018-05-17T13:12:55.029Z,8.80
2018-05-17T13:15:22.728Z,9.33
2018-05-17T13:17:50.458Z,8.47
2018-05-17T13:20:19.364Z,9.10
2018-05-17T13:22:47.847Z,9.27
2018-05-17T13:25:15.911Z,8.40
2018-05-17T13:27:44.938Z,8.47
2018-05-17T13:30:13.607Z,8.77
2018-05-17T13:32:41.701Z,8.90
2018-05-17T13:35:09.658Z,9.23
2018-05-17T13:37:38.397Z,8.03
2018-05-17T13:40:06.458Z,9.23
2018-05-17T13:42:34.407Z,8.83
2018-05-17T13:45:03.741Z,10.00
2018-05-17T13:47:31.791Z,9.10
2018-05-17T13:49:59.517Z,8.57
2018-05-17T13:52:27.335Z,9.80
2018-05-17T13:54:55.197Z,9.00
2018-05-17T13:57:22.969Z,9.03
2018-05-17T13:59:50.740Z,8.90
2018-05-17T14:02:18.549Z,10.27
2018-05-17T14:04:47.574Z,10.07
2018-05-17T14:07:15.632Z,8.70
2018-05-17T14:09:44.506Z,9.80
2018-05-17T14:12:13.048Z,10.37
2018-05-17T14:14:41.642Z,9.13
2018-05-17T14:17:10.337Z,9.33
2018-05-17T14:19:38.270Z,9.17
2018-05-17T14:22:07.685Z,10.20
2018-05-17T14:24:35.809Z,10.63
2018-05-17T14:27:03.595Z,9.43
2018-05-17T14:29:31.521Z,10.40
2018-05-17T14:32:00.037Z,9.50
2018-05-17T14:34:29.433Z,9.70
2018-05-17T14:36:57.252Z,10.37
2018-05-17T14:39:26.237Z,9.53
2018-05-17T14:41:53.856Z,11.13
2018-05-17T14:44:21.734Z,10.17
2018-05-17T14:46:49.458Z,11.17
2018-05-17T14:49:17.639Z,10.97
2018-05-17T14:51:45.484Z,9.30
2018-05-17T14:54:14.820Z,11.90
2018-05-17T14:56:42.763Z,12.17
2018-05-17T14:59:10.644Z,11.43
2018-05-17T15:01:38.447Z,13.37
2018-05-17T15:04:06.944Z,14.00
2018-05-17T15:06:34.807Z,13.80
2018-05-17T15:09:03.230Z,14.53
2018-05-17T15:11:31.865Z,15.40
2018-05-17T15:13:59.730Z,15.53
2018-05-17T15:16:27.622Z,16.37
2018-05-17T15:18:55.404Z,15.80
2018-05-17T15:21:23.667Z,17.40
2018-05-17T15:23:51.608Z,17.10
2018-05-17T15:26:20.551Z,17.50
2018-05-17T15:28:48.320Z,18.43
2018-05-17T15:31:15.980Z,17.77
2018-05-17T15:33:44.104Z,17.40
2018-05-17T15:36:11.918Z,19.07
2018-05-17T15:38:40.428Z,16.58
2018-05-17T15:41:08.121Z,18.27
2018-05-17T15:43:36.080Z,17.67
2018-05-17T15:46:03.829Z,17.43
2018-05-17T15:48:31.840Z,18.17
2018-05-17T15:50:59.647Z,17.77
2018-05-17T15:53:28.366Z,17.90
2018-05-17T15:55:56.492Z,17.67
2018-05-17T15:58:24.471Z,19.17
2018-05-17T16:00:53.177Z,18.10
2018-05-17T16:03:22.087Z,17.60
2018-05-17T16:05:50.870Z,16.40
2018-05-17T16:08:18.623Z,17.67
2018-05-17T16:10:46.891Z,19.67
2018-05-17T16:13:14.911Z,18.07
2018-05-17T16:15:42.792Z,18.47
2018-05-17T16:18:11.005Z,18.90
2018-05-17T16:20:39.604Z,17.87
2018-05-17T16:23:07.550Z,18.70
2018-05-17T16:25:35.341Z,16.97
2018-05-17T16:28:03.207Z,18.53
2018-05-17T16:30:30.847Z,17.53
2018-05-17T16:33:00.112Z,16.27
2018-05-17T16:35:33.759Z,19.42
2018-05-17T16:38:02.636Z,19.10
2018-05-17T16:40:31.877Z,19.07
2018-05-17T16:42:59.935Z,17.90
2018-05-17T16:45:28.625Z,17.23
2018-05-17T16:47:57.146Z,18.70
2018-05-17T16:50:25.136Z,18.17
2018-05-17T16:52:53.937Z,17.40
2018-05-17T16:55:21.979Z,18.37
2018-05-17T16:57:49.876Z,19.33
2018-05-17T17:00:17.654Z,18.97
2018-05-17T17:02:46.103Z,18.23
2018-05-17T17:05:13.879Z,18.47
2018-05-17T17:07:41.677Z,18.23
2018-05-17T17:10:09.799Z,18.90
2018-05-17T17:12:38.439Z,18.73
2018-05-17T17:15:06.320Z,17.33
2018-05-17T17:17:34.148Z,18.60
2018-05-17T17:20:01.933Z,16.77
2018-05-17T17:22:29.755Z,18.97
2018-05-17T17:24:58.776Z,17.83
2018-05-17T17:27:26.575Z,16.37
2018-05-17T17:29:54.710Z,16.67
2018-05-17T17:32:22.391Z,17.77
2018-05-17T17:34:50.807Z,17.63
2018-05-17T17:37:18.680Z,16.97
2018-05-17T17:39:50.580Z,16.07
2018-05-17T17:42:18.631Z,15.90
2018-05-17T17:44:47.088Z,17.93
2018-05-17T17:47:14.791Z,17.77
2018-05-17T17:49:43.323Z,15.73
2018-05-17T17:52:11.829Z,17.50
2018-05-17T17:54:40.109Z,17.37
2018-05-17T17:57:07.927Z,15.97
2018-05-17T17:59:35.700Z,17.97
2018-05-17T18:02:03.470Z,16.40
2018-05-17T18:04:31.364Z,16.00
2018-05-17T18:06:59.342Z,16.63
2018-05-17T18:09:27.945Z,16.27
2018-05-17T18:11:55.754Z,15.63
2018-05-17T18:14:24.923Z,16.87
2018-05-17T18:33:12.750Z,16.93
2018-05-17T18:35:40.431Z,15.67
2018-05-17T18:38:08.040Z,15.40
2018-05-17T18:40:35.973Z,15.20
2018-05-17T18:43:03.864Z,15.67
2018-05-17T18:45:31.605Z,15.50
2018-05-17T18:47:59.513Z,15.47
2018-05-17T18:50:27.313Z,15.90
2018-05-17T18:52:56.273Z,14.53
2018-05-17T18:55:24.800Z,15.83
2018-05-17T18:57:53.122Z,16.73
2018-05-17T19:00:20.848Z,17.40
2018-05-17T19:02:49.123Z,14.73
2018-05-17T19:05:17.981Z,15.60
2018-05-17T19:07:45.799Z,16.30
2018-05-17T19:10:13.657Z,16.50
2018-05-17T19:12:41.510Z,16.17
2018-05-17T19:15:09.387Z,16.87
2018-05-17T19:17:37.396Z,14.83
2018-05-17T19:20:06.102Z,14.60
2018-05-17T19:22:34.655Z,15.37
2018-05-17T19:25:03.474Z,15.13
2018-05-17T19:27:31.985Z,14.57
2018-05-17T19:29:59.722Z,15.00
2018-05-17T19:32:27.627Z,14.40
2018-05-17T19:34:55.423Z,13.37
2018-05-17T19:37:23.149Z,14.73
2018-05-17T19:39:50.927Z,14.00
2018-05-17T19:42:18.839Z,14.00
2018-05-17T19:44:47.013Z,12.47
2018-05-17T19:47:15.744Z,14.10
2018-05-17T19:49:44.592Z,13.33
2018-05-17T19:52:13.392Z,11.80
2018-05-17T19:54:41.210Z,13.77
2018-05-17T19:57:09.720Z,14.50
2018-05-17T19:59:37.741Z,13.47
2018-05-17T20:02:05.970Z,12.93
2018-05-17T20:04:33.655Z,13.17
2018-05-17T20:07:01.371Z,13.23
2018-05-17T20:09:29.253Z,11.90
2018-05-17T20:11:57.395Z,11.85
2018-05-17T20:14:25.331Z,13.17
2018-05-17T20:16:53.065Z,12.67
2018-05-17T20:19:20.954Z,12.83
2018-05-17T20:21:52.360Z,13.73
2018-05-17T20:24:25.073Z,12.10
2018-05-17T20:27:01.140Z,12.60
2018-05-17T20:29:29.703Z,12.57
2018-05-17T20:31:58.915Z,12.23
2018-05-17T20:34:27.960Z,12.20
2018-05-17T20:36:56.259Z,11.87
2018-05-17T20:39:25.491Z,12.30
2018-05-17T20:41:56.571Z,12.90
2018-05-17T20:44:28.553Z,10.87
2018-05-17T20:46:56.411Z,12.10
2018-05-17T20:49:25.721Z,11.10
2018-05-17T20:51:55.049Z,12.80
2018-05-17T20:54:22.698Z,12.13
2018-05-17T20:56:51.387Z,11.70
2018-05-17T20:59:20.377Z,12.33
2018-05-17T21:01:48.347Z,11.30
2018-05-17T21:04:16.130Z,11.60
2018-05-17T21:06:43.715Z,11.00
2018-05-17T21:09:12.305Z,11.80
2018-05-17T21:11:40.219Z,11.43
2018-05-17T21:14:09.121Z,10.90
2018-05-17T21:16:37.347Z,11.00
2018-05-17T21:19:05.154Z,12.13
2018-05-17T21:21:33.050Z,10.17
2018-05-17T21:24:00.882Z,11.70
2018-05-17T21:26:29.928Z,10.80
2018-05-17T21:28:57.903Z,10.53
2018-05-17T21:31:25.881Z,10.10
2018-05-17T21:33:55.149Z,9.90
2018-05-17T21:36:23.817Z,10.63
2018-05-17T21:38:51.713Z,10.33
2018-05-17T21:41:20.479Z,10.20
2018-05-17T21:43:48.586Z,10.40
2018-05-17T21:46:16.276Z,10.03
2018-05-17T21:48:45.081Z,10.10
2018-05-17T21:51:12.835Z,10.80
2018-05-17T21:53:40.679Z,9.50
2018-05-17T21:56:08.670Z,11.27
2018-05-17T21:58:37.060Z,10.67
2018-05-17T22:01:04.845Z,10.87
2018-05-17T22:03:32.718Z,9.27
2018-05-17T22:06:00.374Z,11.13
2018-05-17T22:08:28.485Z,11.07
2018-05-17T22:10:56.330Z,11.03
2018-05-17T22:13:25.423Z,10.47
2018-05-17T22:15:54.134Z,10.13
2018-05-17T22:18:21.990Z,10.10
2018-05-17T22:20:49.903Z,10.60
2018-05-17T22:23:18.389Z,9.17
2018-05-17T22:25:48.154Z,9.87
2018-05-17T22:28:16.056Z,9.83
2018-05-17T22:30:44.141Z,9.73
2018-05-17T22:33:11.950Z,9.63
2018-05-17T22:35:39.745Z,9.47
2018-05-17T22:38:07.588Z,9.13
2018-05-17T22:40:35.386Z,9.43
2018-05-17T22:43:04.954Z,9.03
2018-05-17T22:45:33.552Z,10.33
2018-05-17T22:48:01.602Z,9.90
2018-05-17T22:50:29.630Z,10.10
2018-05-17T22:52:58.050Z,9.50
2018-05-17T22:55:26.568Z,10.33
2018-05-17T22:57:54.389Z,9.18
2018-05-17T23:00:22.301Z,9.00
2018-05-17T23:02:50.315Z,9.80
2018-05-17T23:05:18.718Z,8.77
2018-05-17T23:07:47.669Z,10.00
2018-05-17T23:10:15.535Z,9.10
2018-05-17T23:12:43.356Z,10.13
2018-05-17T23:15:11.410Z,9.70
2018-05-17T23:17:39.992Z,9.37
2018-05-17T23:20:09.276Z,9.00
2018-05-17T23:22:37.153Z,9.53
2018-05-17T23:25:05.003Z,8.70
2018-05-17T23:27:32.667Z,9.00
2018-05-17T23:30:00.341Z,8.50
2018-05-17T23:32:28.538Z,10.10
2018-05-17T23:34:56.454Z,9.48
2018-05-17T23:37:24.060Z,9.47
2018-05-17T23:39:51.777Z,9.00
2018-05-17T23:42:19.642Z,9.23
2018-05-17T23:44:47.357Z,9.53
2018-05-17T23:47:15.148Z,8.97
2018-05-17T23:49:47.521Z,8.50
2018-05-17T23:52:15.329Z,8.93
2018-05-17T23:54:43.186Z,9.53
2018-05-17T23:57:12.354Z,9.60
2018-05-17T23:59:41.143Z,9.27
